sensor_id;sensor_type;location;lat;lon;timestamp;temperature;humidity
18906;DHT22;9585;51.018;4.282;2023-05-10T00:00:13;12.30;99.90
18906;DHT22;9585;51.018;4.282;2023-05-10T00:02:40;12.30;99.90
18906;DHT22;9585;51.018;4.282;2023-05-10T00:05:09;12.30;99.90
18906;DHT22;9585;51.018;4.282;2023-05-10T00:07:36;12.30;99.90
18906;DHT22;9585;51.018;4.282;2023-05-10T00:10:04;12.30;99.90
18906;DHT22;9585;51.018;4.282;2023-05-10T00:12:32;12.30;99.90
18906;DHT22;9585;51.018;4.282;2023-05-10T00:14:59;12.20;99.90
18906;DHT22;9585;51.018;4.282;2023-05-10T00:17:26;12.20;99.90
18906;DHT22;9585;51.018;4.282;2023-05-10T00:19:55;12.20;99.90
18906;DHT22;9585;51.018;4.282;2023-05-10T00:22:23;12.10;99.90
18906;DHT22;9585;51.018;4.282;2023-05-10T00:24:51;12.10;99.90
18906;DHT22;9585;51.018;4.282;2023-05-10T00:27:18;12.20;99.90
18906;DHT22;9585;51.018;4.282;2023-05-10T00:29:45;12.20;99.90
18906;DHT22;9585;51.018;4.282;2023-05-10T00:32:13;12.20;99.90
18906;DHT22;9585;51.018;4.282;2023-05-10T00:34:40;12.20;99.90
18906;DHT22;9585;51.018;4.282;2023-05-10T00:37:08;12.20;99.90
18906;DHT22;9585;51.018;4.282;2023-05-10T00:39:37;12.20;99.90
18906;DHT22;9585;51.018;4.282;2023-05-10T00:42:04;12.20;99.90
18906;DHT22;9585;51.018;4.282;2023-05-10T00:44:31;12.20;99.90
18906;DHT22;9585;51.018;4.282;2023-05-10T00:46:59;12.20;99.90
18906;DHT22;9585;51.018;4.282;2023-05-10T00:49:27;12.20;99.90
18906;DHT22;9585;51.018;4.282;2023-05-10T00:51:55;12.20;99.90
18906;DHT22;9585;51.018;4.282;2023-05-10T00:54:22;12.20;99.90
18906;DHT22;9585;51.018;4.282;2023-05-10T00:56:53;12.20;99.90
18906;DHT22;9585;51.018;4.282;2023-05-10T00:59:20;12.20;99.90
18906;DHT22;9585;51.018;4.282;2023-05-10T01:01:48;12.20;99.90
18906;DHT22;9585;51.018;4.282;2023-05-10T01:04:17;12.20;99.90
18906;DHT22;9585;51.018;4.282;2023-05-10T01:06:45;12.20;99.90
18906;DHT22;9585;51.018;4.282;2023-05-10T01:09:13;12.10;99.90
18906;DHT22;9585;51.018;4.282;2023-05-10T01:11:41;12.20;99.90
18906;DHT22;9585;51.018;4.282;2023-05-10T01:14:11;12.20;99.90
18906;DHT22;9585;51.018;4.282;2023-05-10T01:16:42;12.20;99.90
18906;DHT22;9585;51.018;4.282;2023-05-10T01:19:15;12.20;99.90
18906;DHT22;9585;51.018;4.282;2023-05-10T01:21:49;12.10;99.90
18906;DHT22;9585;51.018;4.282;2023-05-10T01:28:07;12.10;99.90
18906;DHT22;9585;51.018;4.282;2023-05-10T01:34:02;12.10;99.90
18906;DHT22;9585;51.018;4.282;2023-05-10T01:36:40;12.00;99.90
18906;DHT22;9585;51.018;4.282;2023-05-10T01:39:14;12.00;99.90
18906;DHT22;9585;51.018;4.282;2023-05-10T01:41:49;12.00;99.90
18906;DHT22;9585;51.018;4.282;2023-05-10T01:44:27;12.10;99.90
18906;DHT22;9585;51.018;4.282;2023-05-10T01:47:01;12.00;99.90
18906;DHT22;9585;51.018;4.282;2023-05-10T01:49:39;12.00;99.90
18906;DHT22;9585;51.018;4.282;2023-05-10T01:52:10;12.00;99.90
18906;DHT22;9585;51.018;4.282;2023-05-10T01:54:43;12.00;99.90
18906;DHT22;9585;51.018;4.282;2023-05-10T01:57:12;12.10;99.90
18906;DHT22;9585;51.018;4.282;2023-05-10T01:59:43;12.10;99.90
18906;DHT22;9585;51.018;4.282;2023-05-10T02:02:13;12.10;99.90
18906;DHT22;9585;51.018;4.282;2023-05-10T02:04:43;12.10;99.90
18906;DHT22;9585;51.018;4.282;2023-05-10T02:07:12;12.20;99.90
18906;DHT22;9585;51.018;4.282;2023-05-10T02:09:42;12.10;99.90
18906;DHT22;9585;51.018;4.282;2023-05-10T02:12:13;12.10;99.90
18906;DHT22;9585;51.018;4.282;2023-05-10T02:14:42;12.10;99.90
18906;DHT22;9585;51.018;4.282;2023-05-10T02:17:11;12.20;99.90
18906;DHT22;9585;51.018;4.282;2023-05-10T02:19:42;12.20;99.90
18906;DHT22;9585;51.018;4.282;2023-05-10T02:22:12;12.10;99.90
18906;DHT22;9585;51.018;4.282;2023-05-10T02:24:40;12.00;99.90
18906;DHT22;9585;51.018;4.282;2023-05-10T02:27:10;12.00;99.90
18906;DHT22;9585;51.018;4.282;2023-05-10T02:29:39;12.00;99.90
18906;DHT22;9585;51.018;4.282;2023-05-10T02:32:07;12.10;99.90
18906;DHT22;9585;51.018;4.282;2023-05-10T02:34:37;12.10;99.90
18906;DHT22;9585;51.018;4.282;2023-05-10T02:37:07;12.00;99.90
18906;DHT22;9585;51.018;4.282;2023-05-10T02:39:35;11.90;99.90
18906;DHT22;9585;51.018;4.282;2023-05-10T02:42:05;11.80;99.90
18906;DHT22;9585;51.018;4.282;2023-05-10T02:44:34;11.80;99.90
18906;DHT22;9585;51.018;4.282;2023-05-10T02:47:09;11.90;99.90
18906;DHT22;9585;51.018;4.282;2023-05-10T02:49:39;11.80;99.90
18906;DHT22;9585;51.018;4.282;2023-05-10T02:52:11;11.90;99.90
18906;DHT22;9585;51.018;4.282;2023-05-10T02:54:44;11.90;99.90
18906;DHT22;9585;51.018;4.282;2023-05-10T02:57:16;11.80;99.90
18906;DHT22;9585;51.018;4.282;2023-05-10T02:59:45;11.80;99.90
18906;DHT22;9585;51.018;4.282;2023-05-10T03:02:15;11.80;99.90
18906;DHT22;9585;51.018;4.282;2023-05-10T03:04:45;11.80;99.90
18906;DHT22;9585;51.018;4.282;2023-05-10T03:07:18;11.80;99.90
18906;DHT22;9585;51.018;4.282;2023-05-10T03:09:48;11.90;99.90
18906;DHT22;9585;51.018;4.282;2023-05-10T03:12:31;11.80;99.90
18906;DHT22;9585;51.018;4.282;2023-05-10T03:15:06;11.70;99.90
18906;DHT22;9585;51.018;4.282;2023-05-10T03:17:47;11.70;99.90
18906;DHT22;9585;51.018;4.282;2023-05-10T03:20:28;11.70;99.90
18906;DHT22;9585;51.018;4.282;2023-05-10T03:23:04;11.80;99.90
18906;DHT22;9585;51.018;4.282;2023-05-10T03:25:33;11.70;99.90
18906;DHT22;9585;51.018;4.282;2023-05-10T03:28:02;11.70;99.90
18906;DHT22;9585;51.018;4.282;2023-05-10T03:30:31;11.70;99.90
18906;DHT22;9585;51.018;4.282;2023-05-10T03:33:07;11.70;99.90
18906;DHT22;9585;51.018;4.282;2023-05-10T03:35:35;11.60;99.90
18906;DHT22;9585;51.018;4.282;2023-05-10T03:38:04;11.60;99.90
18906;DHT22;9585;51.018;4.282;2023-05-10T03:40:34;11.60;99.90
18906;DHT22;9585;51.018;4.282;2023-05-10T03:43:01;11.60;99.90
18906;DHT22;9585;51.018;4.282;2023-05-10T03:45:29;11.60;99.90
18906;DHT22;9585;51.018;4.282;2023-05-10T03:47:57;11.60;99.90
18906;DHT22;9585;51.018;4.282;2023-05-10T03:50:25;11.50;99.90
18906;DHT22;9585;51.018;4.282;2023-05-10T03:52:52;11.50;99.90
18906;DHT22;9585;51.018;4.282;2023-05-10T03:55:22;11.60;99.90
18906;DHT22;9585;51.018;4.282;2023-05-10T03:57:50;11.60;99.90
18906;DHT22;9585;51.018;4.282;2023-05-10T04:00:20;11.60;99.90
18906;DHT22;9585;51.018;4.282;2023-05-10T04:02:47;11.70;99.90
18906;DHT22;9585;51.018;4.282;2023-05-10T04:05:15;11.70;99.90
18906;DHT22;9585;51.018;4.282;2023-05-10T04:07:53;11.70;99.90
18906;DHT22;9585;51.018;4.282;2023-05-10T04:10:22;11.70;99.90
18906;DHT22;9585;51.018;4.282;2023-05-10T04:12:49;11.70;99.90
18906;DHT22;9585;51.018;4.282;2023-05-10T04:15:17;11.70;99.90
18906;DHT22;9585;51.018;4.282;2023-05-10T04:17:45;11.70;99.90
18906;DHT22;9585;51.018;4.282;2023-05-10T04:20:14;11.70;99.90
18906;DHT22;9585;51.018;4.282;2023-05-10T04:22:47;11.70;99.90
18906;DHT22;9585;51.018;4.282;2023-05-10T04:25:15;11.70;99.90
18906;DHT22;9585;51.018;4.282;2023-05-10T04:27:44;11.70;99.90
18906;DHT22;9585;51.018;4.282;2023-05-10T04:30:12;11.70;99.90
18906;DHT22;9585;51.018;4.282;2023-05-10T04:32:40;11.70;99.90
18906;DHT22;9585;51.018;4.282;2023-05-10T04:35:09;11.70;99.90
18906;DHT22;9585;51.018;4.282;2023-05-10T04:37:37;11.80;99.90
18906;DHT22;9585;51.018;4.282;2023-05-10T04:40:06;11.80;99.90
18906;DHT22;9585;51.018;4.282;2023-05-10T04:42:34;11.80;99.90
18906;DHT22;9585;51.018;4.282;2023-05-10T04:45:05;11.80;99.90
18906;DHT22;9585;51.018;4.282;2023-05-10T04:47:32;11.90;99.90
18906;DHT22;9585;51.018;4.282;2023-05-10T04:50:00;11.90;99.90
18906;DHT22;9585;51.018;4.282;2023-05-10T04:52:28;11.90;99.90
18906;DHT22;9585;51.018;4.282;2023-05-10T04:54:56;12.00;99.90
18906;DHT22;9585;51.018;4.282;2023-05-10T04:57:23;11.90;99.90
18906;DHT22;9585;51.018;4.282;2023-05-10T04:59:51;12.00;99.90
18906;DHT22;9585;51.018;4.282;2023-05-10T05:02:22;12.00;99.90
18906;DHT22;9585;51.018;4.282;2023-05-10T05:04:50;12.10;99.90
18906;DHT22;9585;51.018;4.282;2023-05-10T05:07:18;12.20;99.90
18906;DHT22;9585;51.018;4.282;2023-05-10T05:09:50;12.20;99.90
18906;DHT22;9585;51.018;4.282;2023-05-10T05:12:27;12.30;99.90
18906;DHT22;9585;51.018;4.282;2023-05-10T05:15:02;12.30;99.90
18906;DHT22;9585;51.018;4.282;2023-05-10T05:17:32;12.30;99.90
18906;DHT22;9585;51.018;4.282;2023-05-10T05:20:02;12.40;99.90
18906;DHT22;9585;51.018;4.282;2023-05-10T05:22:44;12.40;99.90
18906;DHT22;9585;51.018;4.282;2023-05-10T05:25:12;12.40;99.90
18906;DHT22;9585;51.018;4.282;2023-05-10T05:27:40;12.40;99.90
18906;DHT22;9585;51.018;4.282;2023-05-10T05:30:10;12.60;99.90
18906;DHT22;9585;51.018;4.282;2023-05-10T05:32:43;12.70;99.90
18906;DHT22;9585;51.018;4.282;2023-05-10T05:35:18;12.90;99.90
18906;DHT22;9585;51.018;4.282;2023-05-10T05:37:46;13.00;99.90
18906;DHT22;9585;51.018;4.282;2023-05-10T05:40:17;13.10;99.90
18906;DHT22;9585;51.018;4.282;2023-05-10T05:42:46;13.20;99.90
18906;DHT22;9585;51.018;4.282;2023-05-10T05:45:23;13.20;99.90
18906;DHT22;9585;51.018;4.282;2023-05-10T05:50:53;13.40;99.90
18906;DHT22;9585;51.018;4.282;2023-05-10T05:53:23;13.60;99.90
18906;DHT22;9585;51.018;4.282;2023-05-10T05:55:56;13.60;99.90
18906;DHT22;9585;51.018;4.282;2023-05-10T05:58:40;13.80;99.90
18906;DHT22;9585;51.018;4.282;2023-05-10T06:01:08;14.00;99.90
18906;DHT22;9585;51.018;4.282;2023-05-10T06:03:36;14.30;99.90
18906;DHT22;9585;51.018;4.282;2023-05-10T06:06:14;14.40;99.90
18906;DHT22;9585;51.018;4.282;2023-05-10T06:08:42;14.60;99.90
18906;DHT22;9585;51.018;4.282;2023-05-10T06:11:09;14.60;99.90
18906;DHT22;9585;51.018;4.282;2023-05-10T06:13:37;14.60;99.90
18906;DHT22;9585;51.018;4.282;2023-05-10T06:16:11;14.60;99.90
18906;DHT22;9585;51.018;4.282;2023-05-10T06:18:39;14.80;99.90
18906;DHT22;9585;51.018;4.282;2023-05-10T06:21:09;14.70;99.90
18906;DHT22;9585;51.018;4.282;2023-05-10T06:23:37;14.50;99.90
18906;DHT22;9585;51.018;4.282;2023-05-10T06:26:08;14.20;99.90
18906;DHT22;9585;51.018;4.282;2023-05-10T06:28:36;14.20;99.90
18906;DHT22;9585;51.018;4.282;2023-05-10T06:31:07;14.20;99.90
18906;DHT22;9585;51.018;4.282;2023-05-10T06:33:39;14.20;99.90
18906;DHT22;9585;51.018;4.282;2023-05-10T06:36:09;14.30;99.90
18906;DHT22;9585;51.018;4.282;2023-05-10T06:38:37;14.20;99.90
18906;DHT22;9585;51.018;4.282;2023-05-10T06:41:05;14.10;99.90
18906;DHT22;9585;51.018;4.282;2023-05-10T06:43:40;14.00;99.90
18906;DHT22;9585;51.018;4.282;2023-05-10T06:46:09;13.80;99.90
18906;DHT22;9585;51.018;4.282;2023-05-10T06:48:37;13.80;99.90
18906;DHT22;9585;51.018;4.282;2023-05-10T06:51:11;13.70;99.90
18906;DHT22;9585;51.018;4.282;2023-05-10T06:53:38;13.60;99.90
18906;DHT22;9585;51.018;4.282;2023-05-10T06:56:06;13.60;99.90
18906;DHT22;9585;51.018;4.282;2023-05-10T06:58:34;13.60;99.90
18906;DHT22;9585;51.018;4.282;2023-05-10T07:01:05;13.60;99.90
18906;DHT22;9585;51.018;4.282;2023-05-10T07:03:35;13.60;99.90
18906;DHT22;9585;51.018;4.282;2023-05-10T07:06:04;13.70;99.90
18906;DHT22;9585;51.018;4.282;2023-05-10T07:08:35;13.80;99.90
18906;DHT22;9585;51.018;4.282;2023-05-10T07:11:03;13.90;99.90
18906;DHT22;9585;51.018;4.282;2023-05-10T07:13:33;13.90;99.90
18906;DHT22;9585;51.018;4.282;2023-05-10T07:16:01;13.90;99.90
18906;DHT22;9585;51.018;4.282;2023-05-10T07:18:29;14.00;99.90
18906;DHT22;9585;51.018;4.282;2023-05-10T07:20:59;14.10;99.90
18906;DHT22;9585;51.018;4.282;2023-05-10T07:23:27;14.00;99.90
18906;DHT22;9585;51.018;4.282;2023-05-10T07:25:57;14.10;99.90
18906;DHT22;9585;51.018;4.282;2023-05-10T07:28:25;14.20;99.90
18906;DHT22;9585;51.018;4.282;2023-05-10T07:30:55;14.30;99.90
18906;DHT22;9585;51.018;4.282;2023-05-10T07:33:22;14.30;99.90
18906;DHT22;9585;51.018;4.282;2023-05-10T07:35:50;14.40;99.90
18906;DHT22;9585;51.018;4.282;2023-05-10T07:38:18;14.50;99.90
18906;DHT22;9585;51.018;4.282;2023-05-10T07:40:48;14.60;99.90
18906;DHT22;9585;51.018;4.282;2023-05-10T07:43:18;14.60;99.90
18906;DHT22;9585;51.018;4.282;2023-05-10T07:45:46;14.50;99.90
18906;DHT22;9585;51.018;4.282;2023-05-10T07:48:17;14.40;99.90
18906;DHT22;9585;51.018;4.282;2023-05-10T07:50:45;14.50;99.90
18906;DHT22;9585;51.018;4.282;2023-05-10T07:53:13;14.70;99.90
18906;DHT22;9585;51.018;4.282;2023-05-10T07:55:41;15.10;99.90
18906;DHT22;9585;51.018;4.282;2023-05-10T07:58:09;15.40;99.90
18906;DHT22;9585;51.018;4.282;2023-05-10T08:00:38;15.30;99.90
18906;DHT22;9585;51.018;4.282;2023-05-10T08:03:08;15.20;99.90
18906;DHT22;9585;51.018;4.282;2023-05-10T08:05:36;15.00;99.90
18906;DHT22;9585;51.018;4.282;2023-05-10T08:08:04;15.00;99.90
18906;DHT22;9585;51.018;4.282;2023-05-10T08:10:34;14.90;99.90
18906;DHT22;9585;51.018;4.282;2023-05-10T08:13:01;14.90;99.90
18906;DHT22;9585;51.018;4.282;2023-05-10T08:15:30;14.90;99.90
18906;DHT22;9585;51.018;4.282;2023-05-10T08:18:00;14.90;99.90
18906;DHT22;9585;51.018;4.282;2023-05-10T08:20:27;14.80;99.90
18906;DHT22;9585;51.018;4.282;2023-05-10T08:22:55;14.50;99.90
18906;DHT22;9585;51.018;4.282;2023-05-10T08:25:23;14.40;99.90
18906;DHT22;9585;51.018;4.282;2023-05-10T08:27:50;14.20;99.90
18906;DHT22;9585;51.018;4.282;2023-05-10T08:30:18;14.20;99.90
18906;DHT22;9585;51.018;4.282;2023-05-10T08:32:45;14.20;99.90
18906;DHT22;9585;51.018;4.282;2023-05-10T08:35:15;14.10;99.90
18906;DHT22;9585;51.018;4.282;2023-05-10T08:37:42;14.20;99.90
18906;DHT22;9585;51.018;4.282;2023-05-10T08:40:11;14.30;99.90
18906;DHT22;9585;51.018;4.282;2023-05-10T08:42:42;14.20;99.90
18906;DHT22;9585;51.018;4.282;2023-05-10T08:45:11;14.20;99.90
18906;DHT22;9585;51.018;4.282;2023-05-10T08:47:39;13.90;99.90
18906;DHT22;9585;51.018;4.282;2023-05-10T08:50:08;13.70;99.90
18906;DHT22;9585;51.018;4.282;2023-05-10T08:52:40;13.80;99.90
18906;DHT22;9585;51.018;4.282;2023-05-10T08:55:09;13.80;99.90
18906;DHT22;9585;51.018;4.282;2023-05-10T08:57:36;14.00;99.90
18906;DHT22;9585;51.018;4.282;2023-05-10T09:00:05;14.10;99.90
18906;DHT22;9585;51.018;4.282;2023-05-10T09:02:34;14.10;99.90
18906;DHT22;9585;51.018;4.282;2023-05-10T09:05:03;14.20;99.90
18906;DHT22;9585;51.018;4.282;2023-05-10T09:07:31;14.20;99.90
18906;DHT22;9585;51.018;4.282;2023-05-10T09:10:00;14.00;99.90
18906;DHT22;9585;51.018;4.282;2023-05-10T09:12:28;13.90;99.90
18906;DHT22;9585;51.018;4.282;2023-05-10T09:14:56;13.80;99.90
18906;DHT22;9585;51.018;4.282;2023-05-10T09:17:25;13.60;99.90
18906;DHT22;9585;51.018;4.282;2023-05-10T09:19:57;13.40;99.90
18906;DHT22;9585;51.018;4.282;2023-05-10T09:22:25;13.40;99.90
18906;DHT22;9585;51.018;4.282;2023-05-10T09:25:06;13.40;99.90
18906;DHT22;9585;51.018;4.282;2023-05-10T09:27:35;13.30;99.90
18906;DHT22;9585;51.018;4.282;2023-05-10T09:30:03;13.20;99.90
18906;DHT22;9585;51.018;4.282;2023-05-10T09:32:39;13.10;99.90
18906;DHT22;9585;51.018;4.282;2023-05-10T09:35:08;12.90;99.90
18906;DHT22;9585;51.018;4.282;2023-05-10T09:37:36;12.80;99.90
18906;DHT22;9585;51.018;4.282;2023-05-10T09:40:13;12.70;99.90
18906;DHT22;9585;51.018;4.282;2023-05-10T09:42:55;12.70;99.90
18906;DHT22;9585;51.018;4.282;2023-05-10T09:45:24;12.70;99.90
18906;DHT22;9585;51.018;4.282;2023-05-10T09:47:54;12.70;99.90
18906;DHT22;9585;51.018;4.282;2023-05-10T09:50:24;12.90;99.90
18906;DHT22;9585;51.018;4.282;2023-05-10T09:52:53;13.10;99.90
18906;DHT22;9585;51.018;4.282;2023-05-10T09:55:24;13.40;99.90
18906;DHT22;9585;51.018;4.282;2023-05-10T09:58:00;13.50;99.90
18906;DHT22;9585;51.018;4.282;2023-05-10T10:00:28;13.70;99.90
18906;DHT22;9585;51.018;4.282;2023-05-10T10:02:57;13.80;99.90
18906;DHT22;9585;51.018;4.282;2023-05-10T10:05:28;13.90;99.90
18906;DHT22;9585;51.018;4.282;2023-05-10T10:07:58;14.20;99.90
18906;DHT22;9585;51.018;4.282;2023-05-10T10:10:28;14.10;99.90
18906;DHT22;9585;51.018;4.282;2023-05-10T10:12:55;14.10;99.90
18906;DHT22;9585;51.018;4.282;2023-05-10T10:15:23;14.10;99.90
18906;DHT22;9585;51.018;4.282;2023-05-10T10:17:52;14.10;99.90
18906;DHT22;9585;51.018;4.282;2023-05-10T10:20:21;14.10;99.90
18906;DHT22;9585;51.018;4.282;2023-05-10T10:22:51;14.00;99.90
18906;DHT22;9585;51.018;4.282;2023-05-10T10:25:20;14.00;99.90
18906;DHT22;9585;51.018;4.282;2023-05-10T10:28:02;14.10;99.90
18906;DHT22;9585;51.018;4.282;2023-05-10T10:30:42;14.20;99.90
18906;DHT22;9585;51.018;4.282;2023-05-10T10:36:16;14.40;99.90
18906;DHT22;9585;51.018;4.282;2023-05-10T10:38:58;14.60;99.90
18906;DHT22;9585;51.018;4.282;2023-05-10T10:41:32;14.70;99.90
18906;DHT22;9585;51.018;4.282;2023-05-10T10:44:26;14.90;99.90
18906;DHT22;9585;51.018;4.282;2023-05-10T10:47:03;14.90;99.90
18906;DHT22;9585;51.018;4.282;2023-05-10T10:49:49;15.00;99.90
18906;DHT22;9585;51.018;4.282;2023-05-10T10:52:25;15.00;99.90
18906;DHT22;9585;51.018;4.282;2023-05-10T10:54:59;14.70;99.90
18906;DHT22;9585;51.018;4.282;2023-05-10T10:57:30;14.90;99.90
18906;DHT22;9585;51.018;4.282;2023-05-10T11:00:25;15.00;99.90
18906;DHT22;9585;51.018;4.282;2023-05-10T11:02:56;15.20;99.90
18906;DHT22;9585;51.018;4.282;2023-05-10T11:05:34;15.20;99.90
18906;DHT22;9585;51.018;4.282;2023-05-10T11:08:09;15.10;99.90
18906;DHT22;9585;51.018;4.282;2023-05-10T11:10:37;15.20;99.90
18906;DHT22;9585;51.018;4.282;2023-05-10T11:13:09;15.10;99.90
18906;DHT22;9585;51.018;4.282;2023-05-10T11:15:53;15.10;99.90
18906;DHT22;9585;51.018;4.282;2023-05-10T11:18:25;15.00;99.90
18906;DHT22;9585;51.018;4.282;2023-05-10T11:20:59;15.00;99.90
18906;DHT22;9585;51.018;4.282;2023-05-10T11:23:47;15.10;99.90
18906;DHT22;9585;51.018;4.282;2023-05-10T11:26:22;15.10;99.90
18906;DHT22;9585;51.018;4.282;2023-05-10T11:28:53;15.10;99.90
18906;DHT22;9585;51.018;4.282;2023-05-10T11:31:23;15.00;99.90
18906;DHT22;9585;51.018;4.282;2023-05-10T11:33:53;15.10;99.90
18906;DHT22;9585;51.018;4.282;2023-05-10T11:36:24;15.10;99.90
18906;DHT22;9585;51.018;4.282;2023-05-10T11:38:52;15.20;99.90
18906;DHT22;9585;51.018;4.282;2023-05-10T11:41:21;15.30;99.90
18906;DHT22;9585;51.018;4.282;2023-05-10T11:43:53;15.30;99.90
18906;DHT22;9585;51.018;4.282;2023-05-10T11:46:24;15.40;99.90
18906;DHT22;9585;51.018;4.282;2023-05-10T11:48:59;15.50;99.90
18906;DHT22;9585;51.018;4.282;2023-05-10T11:51:32;15.60;99.90
18906;DHT22;9585;51.018;4.282;2023-05-10T11:54:00;15.60;99.90
18906;DHT22;9585;51.018;4.282;2023-05-10T11:56:27;15.40;99.90
18906;DHT22;9585;51.018;4.282;2023-05-10T11:58:56;15.50;99.90
18906;DHT22;9585;51.018;4.282;2023-05-10T12:01:26;15.40;99.90
18906;DHT22;9585;51.018;4.282;2023-05-10T12:03:56;15.40;99.90
18906;DHT22;9585;51.018;4.282;2023-05-10T12:06:27;15.50;99.90
18906;DHT22;9585;51.018;4.282;2023-05-10T12:08:55;15.50;99.90
18906;DHT22;9585;51.018;4.282;2023-05-10T12:11:29;15.50;99.90
18906;DHT22;9585;51.018;4.282;2023-05-10T12:13:58;15.50;99.90
18906;DHT22;9585;51.018;4.282;2023-05-10T12:16:30;15.60;99.90
18906;DHT22;9585;51.018;4.282;2023-05-10T12:18:59;15.60;99.90
18906;DHT22;9585;51.018;4.282;2023-05-10T12:21:31;15.60;99.90
18906;DHT22;9585;51.018;4.282;2023-05-10T12:24:01;15.50;99.90
18906;DHT22;9585;51.018;4.282;2023-05-10T12:26:29;15.50;99.90
18906;DHT22;9585;51.018;4.282;2023-05-10T12:29:12;15.40;99.90
18906;DHT22;9585;51.018;4.282;2023-05-10T12:31:52;15.40;99.90
18906;DHT22;9585;51.018;4.282;2023-05-10T12:34:26;15.30;99.90
18906;DHT22;9585;51.018;4.282;2023-05-10T12:36:54;15.40;99.90
18906;DHT22;9585;51.018;4.282;2023-05-10T12:39:25;15.40;99.90
18906;DHT22;9585;51.018;4.282;2023-05-10T12:41:56;15.40;99.90
18906;DHT22;9585;51.018;4.282;2023-05-10T12:44:24;15.50;99.90
18906;DHT22;9585;51.018;4.282;2023-05-10T12:46:52;15.30;99.90
18906;DHT22;9585;51.018;4.282;2023-05-10T12:49:25;15.20;99.90
18906;DHT22;9585;51.018;4.282;2023-05-10T12:51:57;15.20;99.90
18906;DHT22;9585;51.018;4.282;2023-05-10T12:54:25;15.30;99.90
18906;DHT22;9585;51.018;4.282;2023-05-10T12:56:56;15.20;99.90
18906;DHT22;9585;51.018;4.282;2023-05-10T12:59:24;15.20;99.90
18906;DHT22;9585;51.018;4.282;2023-05-10T13:01:59;15.10;99.90
18906;DHT22;9585;51.018;4.282;2023-05-10T13:04:27;15.00;99.90
18906;DHT22;9585;51.018;4.282;2023-05-10T13:06:55;14.90;99.90
18906;DHT22;9585;51.018;4.282;2023-05-10T13:09:25;15.00;99.90
18906;DHT22;9585;51.018;4.282;2023-05-10T13:11:56;14.90;99.90
18906;DHT22;9585;51.018;4.282;2023-05-10T13:14:24;14.90;99.90
18906;DHT22;9585;51.018;4.282;2023-05-10T13:16:53;15.00;99.90
18906;DHT22;9585;51.018;4.282;2023-05-10T13:19:22;15.00;99.90
18906;DHT22;9585;51.018;4.282;2023-05-10T13:21:50;15.10;99.90
18906;DHT22;9585;51.018;4.282;2023-05-10T13:24:18;15.10;99.90
18906;DHT22;9585;51.018;4.282;2023-05-10T13:26:45;15.10;99.90
18906;DHT22;9585;51.018;4.282;2023-05-10T13:29:13;15.10;99.90
18906;DHT22;9585;51.018;4.282;2023-05-10T13:31:43;15.00;99.90
18906;DHT22;9585;51.018;4.282;2023-05-10T13:34:11;15.10;99.90
18906;DHT22;9585;51.018;4.282;2023-05-10T13:36:42;15.00;99.90
18906;DHT22;9585;51.018;4.282;2023-05-10T13:39:15;15.00;99.90
18906;DHT22;9585;51.018;4.282;2023-05-10T13:41:52;15.10;99.90
18906;DHT22;9585;51.018;4.282;2023-05-10T13:44:22;15.10;99.90
18906;DHT22;9585;51.018;4.282;2023-05-10T13:47:00;15.20;99.90
18906;DHT22;9585;51.018;4.282;2023-05-10T13:49:30;15.20;99.90
18906;DHT22;9585;51.018;4.282;2023-05-10T13:52:00;15.20;99.90
18906;DHT22;9585;51.018;4.282;2023-05-10T13:54:32;15.30;99.90
18906;DHT22;9585;51.018;4.282;2023-05-10T13:57:12;15.20;99.90
18906;DHT22;9585;51.018;4.282;2023-05-10T13:59:58;15.30;99.90
18906;DHT22;9585;51.018;4.282;2023-05-10T14:02:26;15.40;99.90
18906;DHT22;9585;51.018;4.282;2023-05-10T14:04:55;15.40;99.90
18906;DHT22;9585;51.018;4.282;2023-05-10T14:07:24;15.50;99.90
18906;DHT22;9585;51.018;4.282;2023-05-10T14:09:51;15.40;99.90
18906;DHT22;9585;51.018;4.282;2023-05-10T14:12:22;15.40;99.90
18906;DHT22;9585;51.018;4.282;2023-05-10T14:14:49;15.60;99.90
18906;DHT22;9585;51.018;4.282;2023-05-10T14:17:18;15.70;99.90
18906;DHT22;9585;51.018;4.282;2023-05-10T14:19:46;15.50;99.90
18906;DHT22;9585;51.018;4.282;2023-05-10T14:22:20;15.50;99.90
18906;DHT22;9585;51.018;4.282;2023-05-10T14:25:00;15.40;99.90
18906;DHT22;9585;51.018;4.282;2023-05-10T14:27:33;15.40;99.90
18906;DHT22;9585;51.018;4.282;2023-05-10T14:30:03;15.40;99.90
18906;DHT22;9585;51.018;4.282;2023-05-10T14:32:39;15.20;99.90
18906;DHT22;9585;51.018;4.282;2023-05-10T14:35:14;15.20;99.90
18906;DHT22;9585;51.018;4.282;2023-05-10T14:37:44;15.30;99.90
18906;DHT22;9585;51.018;4.282;2023-05-10T14:40:14;15.30;99.90
18906;DHT22;9585;51.018;4.282;2023-05-10T14:42:43;15.20;99.90
18906;DHT22;9585;51.018;4.282;2023-05-10T14:45:13;15.00;99.90
18906;DHT22;9585;51.018;4.282;2023-05-10T14:47:41;15.00;99.90
18906;DHT22;9585;51.018;4.282;2023-05-10T14:50:09;14.80;99.90
18906;DHT22;9585;51.018;4.282;2023-05-10T14:52:36;14.80;99.90
18906;DHT22;9585;51.018;4.282;2023-05-10T14:55:05;14.50;99.90
18906;DHT22;9585;51.018;4.282;2023-05-10T14:57:34;14.30;99.90
18906;DHT22;9585;51.018;4.282;2023-05-10T15:00:04;14.30;99.90
18906;DHT22;9585;51.018;4.282;2023-05-10T15:02:33;14.20;99.90
18906;DHT22;9585;51.018;4.282;2023-05-10T15:05:00;14.10;99.90
18906;DHT22;9585;51.018;4.282;2023-05-10T15:07:28;14.00;99.90
18906;DHT22;9585;51.018;4.282;2023-05-10T15:09:57;13.80;99.90
18906;DHT22;9585;51.018;4.282;2023-05-10T15:12:24;13.80;99.90
18906;DHT22;9585;51.018;4.282;2023-05-10T15:14:57;13.70;99.90
18906;DHT22;9585;51.018;4.282;2023-05-10T15:17:24;13.70;99.90
18906;DHT22;9585;51.018;4.282;2023-05-10T15:20:01;13.80;99.90
18906;DHT22;9585;51.018;4.282;2023-05-10T15:22:29;13.70;99.90
18906;DHT22;9585;51.018;4.282;2023-05-10T15:24:57;13.70;99.90
18906;DHT22;9585;51.018;4.282;2023-05-10T15:27:25;13.70;99.90
18906;DHT22;9585;51.018;4.282;2023-05-10T15:29:52;13.60;99.90
18906;DHT22;9585;51.018;4.282;2023-05-10T15:32:24;13.50;99.90
18906;DHT22;9585;51.018;4.282;2023-05-10T15:34:51;13.40;99.90
18906;DHT22;9585;51.018;4.282;2023-05-10T15:37:19;13.50;99.90
18906;DHT22;9585;51.018;4.282;2023-05-10T15:39:47;13.40;99.90
18906;DHT22;9585;51.018;4.282;2023-05-10T15:42:14;13.40;99.90
18906;DHT22;9585;51.018;4.282;2023-05-10T15:44:42;13.30;99.90
18906;DHT22;9585;51.018;4.282;2023-05-10T15:47:10;13.30;99.90
18906;DHT22;9585;51.018;4.282;2023-05-10T15:49:39;13.20;99.90
18906;DHT22;9585;51.018;4.282;2023-05-10T15:52:06;13.20;99.90
18906;DHT22;9585;51.018;4.282;2023-05-10T15:54:34;13.20;99.90
18906;DHT22;9585;51.018;4.282;2023-05-10T15:57:01;13.20;99.90
18906;DHT22;9585;51.018;4.282;2023-05-10T15:59:29;13.10;99.90
18906;DHT22;9585;51.018;4.282;2023-05-10T16:01:57;13.00;99.90
18906;DHT22;9585;51.018;4.282;2023-05-10T16:04:24;13.10;99.90
18906;DHT22;9585;51.018;4.282;2023-05-10T16:06:53;13.00;99.90
18906;DHT22;9585;51.018;4.282;2023-05-10T16:09:21;13.10;99.90
18906;DHT22;9585;51.018;4.282;2023-05-10T16:11:49;13.00;99.90
18906;DHT22;9585;51.018;4.282;2023-05-10T16:14:16;13.00;99.90
18906;DHT22;9585;51.018;4.282;2023-05-10T16:16:46;12.90;99.90